createdAt,value
2019-03-19T03:27:29.895Z,4.00
2019-03-19T03:29:59.044Z,2.60
2019-03-19T03:32:28.133Z,2.40
2019-03-19T03:34:57.222Z,2.30
2019-03-19T03:37:26.284Z,2.30
2019-03-19T03:39:55.360Z,2.30
2019-03-19T03:42:24.482Z,2.30
2019-03-19T03:44:53.569Z,2.30
2019-03-19T03:47:22.722Z,2.20
2019-03-19T03:49:51.898Z,2.20
2019-03-19T03:52:20.969Z,2.20
2019-03-19T03:54:50.069Z,2.20
2019-03-19T03:57:19.157Z,2.20
2019-03-19T03:59:48.258Z,2.10
2019-03-19T04:02:17.423Z,2.10
2019-03-19T04:04:46.523Z,2.10
2019-03-19T04:07:15.576Z,2.10
2019-03-19T04:09:44.635Z,2.20
2019-03-19T04:12:13.843Z,2.20
2019-03-19T04:14:42.922Z,2.20
2019-03-19T04:17:12.004Z,2.20
2019-03-19T04:19:41.065Z,2.30
2019-03-19T04:22:10.163Z,2.20
2019-03-19T04:24:39.240Z,2.20
2019-03-19T04:27:15.826Z,2.20
2019-03-19T04:29:39.042Z,2.10
2019-03-19T04:32:08.122Z,2.10
2019-03-19T04:34:37.220Z,2.10
2019-03-19T04:37:06.291Z,2.10
2019-03-19T04:39:35.413Z,2.10
2019-03-19T04:42:04.484Z,2.00
2019-03-19T04:44:33.599Z,2.00
2019-03-19T04:47:02.751Z,2.00
2019-03-19T04:49:31.736Z,2.10
2019-03-19T04:52:00.822Z,2.00
2019-03-19T04:54:29.911Z,2.00
2019-03-19T04:56:59.058Z,2.00
2019-03-19T04:59:28.194Z,2.00
2019-03-19T05:01:57.319Z,1.90
2019-03-19T05:04:26.410Z,1.90
2019-03-19T05:06:55.484Z,1.90
2019-03-19T05:09:24.635Z,1.90
2019-03-19T05:11:53.723Z,1.90
2019-03-19T05:14:22.803Z,1.90
2019-03-19T05:16:51.874Z,1.90
2019-03-19T05:19:21.206Z,1.90
2019-03-19T05:21:50.278Z,1.80
2019-03-19T05:24:19.364Z,1.90
2019-03-19T05:26:48.715Z,1.90
2019-03-19T05:29:17.830Z,1.90
2019-03-19T05:31:46.934Z,2.00
2019-03-19T05:34:16.123Z,2.10
2019-03-19T05:36:45.262Z,2.20
2019-03-19T05:39:14.359Z,2.30
2019-03-19T05:41:43.461Z,2.30
2019-03-19T05:44:12.606Z,2.40
2019-03-19T05:46:41.662Z,2.40
2019-03-19T05:49:10.820Z,2.50
2019-03-19T05:51:39.935Z,2.50
